sensor_id;sensor_type;location;lat;lon;timestamp;P1;durP1;ratioP1;P2;durP2;ratioP2
2874;SDS011;1445;52.600;13.328;2023-04-24T00:00:45;6.47;;;5.18;;
2874;SDS011;1445;52.600;13.328;2023-04-24T00:03:12;5.63;;;5.05;;
2874;SDS011;1445;52.600;13.328;2023-04-24T00:05:37;5.68;;;4.97;;
2874;SDS011;1445;52.600;13.328;2023-04-24T00:08:05;6.43;;;5.28;;
2874;SDS011;1445;52.600;13.328;2023-04-24T00:10:31;6.60;;;5.60;;
2874;SDS011;1445;52.600;13.328;2023-04-24T00:12:56;5.68;;;5.07;;
2874;SDS011;1445;52.600;13.328;2023-04-24T00:15:22;6.28;;;5.45;;
2874;SDS011;1445;52.600;13.328;2023-04-24T00:17:48;5.80;;;5.00;;
2874;SDS011;1445;52.600;13.328;2023-04-24T00:20:13;5.18;;;4.68;;
2874;SDS011;1445;52.600;13.328;2023-04-24T00:22:39;6.35;;;5.30;;
2874;SDS011;1445;52.600;13.328;2023-04-24T00:25:05;6.32;;;5.70;;
2874;SDS011;1445;52.600;13.328;2023-04-24T00:27:31;8.35;;;5.45;;
2874;SDS011;1445;52.600;13.328;2023-04-24T00:29:56;7.47;;;5.35;;
2874;SDS011;1445;52.600;13.328;2023-04-24T00:32:22;6.40;;;5.30;;
2874;SDS011;1445;52.600;13.328;2023-04-24T00:34:47;7.05;;;5.55;;
2874;SDS011;1445;52.600;13.328;2023-04-24T00:37:13;8.32;;;6.00;;
2874;SDS011;1445;52.600;13.328;2023-04-24T00:39:38;8.55;;;6.10;;
2874;SDS011;1445;52.600;13.328;2023-04-24T00:42:04;7.13;;;6.28;;
2874;SDS011;1445;52.600;13.328;2023-04-24T00:44:31;6.18;;;5.50;;
2874;SDS011;1445;52.600;13.328;2023-04-24T00:46:58;8.20;;;5.53;;
2874;SDS011;1445;52.600;13.328;2023-04-24T00:49:24;6.40;;;5.65;;
2874;SDS011;1445;52.600;13.328;2023-04-24T00:51:49;6.65;;;5.72;;
2874;SDS011;1445;52.600;13.328;2023-04-24T00:54:16;7.70;;;6.18;;
2874;SDS011;1445;52.600;13.328;2023-04-24T00:56:42;7.25;;;5.88;;
2874;SDS011;1445;52.600;13.328;2023-04-24T00:59:09;6.95;;;6.13;;
2874;SDS011;1445;52.600;13.328;2023-04-24T01:01:36;9.60;;;5.70;;
2874;SDS011;1445;52.600;13.328;2023-04-24T01:04:02;7.75;;;5.50;;
2874;SDS011;1445;52.600;13.328;2023-04-24T01:06:28;6.35;;;5.72;;
2874;SDS011;1445;52.600;13.328;2023-04-24T01:08:56;6.95;;;5.65;;
2874;SDS011;1445;52.600;13.328;2023-04-24T01:11:24;5.65;;;5.07;;
2874;SDS011;1445;52.600;13.328;2023-04-24T01:13:49;5.85;;;5.10;;
2874;SDS011;1445;52.600;13.328;2023-04-24T01:16:15;6.18;;;5.55;;
2874;SDS011;1445;52.600;13.328;2023-04-24T01:18:42;7.70;;;5.30;;
2874;SDS011;1445;52.600;13.328;2023-04-24T01:21:08;7.05;;;5.88;;
2874;SDS011;1445;52.600;13.328;2023-04-24T01:23:37;6.65;;;5.95;;
2874;SDS011;1445;52.600;13.328;2023-04-24T01:26:02;9.73;;;6.00;;
2874;SDS011;1445;52.600;13.328;2023-04-24T01:28:28;6.75;;;5.53;;
2874;SDS011;1445;52.600;13.328;2023-04-24T01:30:54;5.95;;;5.07;;
2874;SDS011;1445;52.600;13.328;2023-04-24T01:33:20;6.45;;;5.78;;
2874;SDS011;1445;52.600;13.328;2023-04-24T01:35:46;6.70;;;5.78;;
2874;SDS011;1445;52.600;13.328;2023-04-24T01:38:12;6.32;;;5.65;;
2874;SDS011;1445;52.600;13.328;2023-04-24T01:40:38;6.60;;;5.65;;
2874;SDS011;1445;52.600;13.328;2023-04-24T01:43:03;5.90;;;4.75;;
2874;SDS011;1445;52.600;13.328;2023-04-24T01:45:29;8.45;;;5.60;;
2874;SDS011;1445;52.600;13.328;2023-04-24T01:47:54;5.25;;;4.65;;
2874;SDS011;1445;52.600;13.328;2023-04-24T01:50:21;6.43;;;4.85;;
2874;SDS011;1445;52.600;13.328;2023-04-24T01:52:46;6.25;;;5.22;;
2874;SDS011;1445;52.600;13.328;2023-04-24T01:55:12;5.47;;;4.90;;
2874;SDS011;1445;52.600;13.328;2023-04-24T01:57:37;5.32;;;4.82;;
2874;SDS011;1445;52.600;13.328;2023-04-24T02:00:03;5.32;;;4.60;;
2874;SDS011;1445;52.600;13.328;2023-04-24T02:02:29;5.32;;;4.82;;
2874;SDS011;1445;52.600;13.328;2023-04-24T02:04:55;5.38;;;4.88;;
2874;SDS011;1445;52.600;13.328;2023-04-24T02:07:21;5.72;;;5.18;;
2874;SDS011;1445;52.600;13.328;2023-04-24T02:09:47;5.85;;;5.35;;
2874;SDS011;1445;52.600;13.328;2023-04-24T02:12:13;6.35;;;5.72;;
2874;SDS011;1445;52.600;13.328;2023-04-24T02:14:38;5.88;;;5.28;;
2874;SDS011;1445;52.600;13.328;2023-04-24T02:17:04;7.78;;;6.68;;
2874;SDS011;1445;52.600;13.328;2023-04-24T02:19:30;7.43;;;6.65;;
2874;SDS011;1445;52.600;13.328;2023-04-24T02:21:56;8.02;;;6.97;;
2874;SDS011;1445;52.600;13.328;2023-04-24T02:24:21;8.43;;;7.00;;
2874;SDS011;1445;52.600;13.328;2023-04-24T02:26:46;8.00;;;6.88;;
2874;SDS011;1445;52.600;13.328;2023-04-24T02:29:12;8.38;;;7.20;;
2874;SDS011;1445;52.600;13.328;2023-04-24T02:31:37;9.68;;;7.57;;
2874;SDS011;1445;52.600;13.328;2023-04-24T02:34:03;8.95;;;7.80;;
2874;SDS011;1445;52.600;13.328;2023-04-24T02:36:28;8.20;;;7.28;;
2874;SDS011;1445;52.600;13.328;2023-04-24T02:38:54;10.38;;;7.80;;
2874;SDS011;1445;52.600;13.328;2023-04-24T02:41:20;9.40;;;7.43;;
2874;SDS011;1445;52.600;13.328;2023-04-24T02:43:45;8.25;;;7.15;;
2874;SDS011;1445;52.600;13.328;2023-04-24T02:46:10;9.07;;;7.57;;
2874;SDS011;1445;52.600;13.328;2023-04-24T02:48:36;8.55;;;7.65;;
2874;SDS011;1445;52.600;13.328;2023-04-24T02:51:01;8.23;;;7.38;;
2874;SDS011;1445;52.600;13.328;2023-04-24T02:53:27;8.35;;;7.40;;
2874;SDS011;1445;52.600;13.328;2023-04-24T02:55:52;8.00;;;7.03;;
2874;SDS011;1445;52.600;13.328;2023-04-24T02:58:17;8.68;;;7.30;;
2874;SDS011;1445;52.600;13.328;2023-04-24T03:00:45;9.45;;;6.82;;
2874;SDS011;1445;52.600;13.328;2023-04-24T03:03:11;9.30;;;7.40;;
2874;SDS011;1445;52.600;13.328;2023-04-24T03:05:36;8.93;;;7.07;;
2874;SDS011;1445;52.600;13.328;2023-04-24T03:08:02;9.07;;;6.88;;
2874;SDS011;1445;52.600;13.328;2023-04-24T03:10:27;13.40;;;7.05;;
2874;SDS011;1445;52.600;13.328;2023-04-24T03:12:52;7.22;;;6.20;;
2874;SDS011;1445;52.600;13.328;2023-04-24T03:15:19;9.63;;;6.68;;
2874;SDS011;1445;52.600;13.328;2023-04-24T03:17:45;8.73;;;6.25;;
2874;SDS011;1445;52.600;13.328;2023-04-24T03:20:10;7.47;;;6.30;;
2874;SDS011;1445;52.600;13.328;2023-04-24T03:22:36;7.43;;;6.07;;
2874;SDS011;1445;52.600;13.328;2023-04-24T03:25:01;7.88;;;6.55;;
2874;SDS011;1445;52.600;13.328;2023-04-24T03:27:27;7.38;;;6.60;;
2874;SDS011;1445;52.600;13.328;2023-04-24T03:29:52;8.57;;;7.03;;
2874;SDS011;1445;52.600;13.328;2023-04-24T03:32:20;6.93;;;5.95;;
2874;SDS011;1445;52.600;13.328;2023-04-24T03:34:47;6.20;;;5.60;;
2874;SDS011;1445;52.600;13.328;2023-04-24T03:37:13;7.85;;;6.28;;
2874;SDS011;1445;52.600;13.328;2023-04-24T03:39:38;7.35;;;6.30;;
2874;SDS011;1445;52.600;13.328;2023-04-24T03:42:03;7.40;;;6.03;;
2874;SDS011;1445;52.600;13.328;2023-04-24T03:44:29;8.10;;;7.05;;
2874;SDS011;1445;52.600;13.328;2023-04-24T03:46:54;7.25;;;6.47;;
2874;SDS011;1445;52.600;13.328;2023-04-24T03:49:20;7.80;;;6.20;;
2874;SDS011;1445;52.600;13.328;2023-04-24T03:51:45;7.63;;;6.78;;
2874;SDS011;1445;52.600;13.328;2023-04-24T03:54:10;7.28;;;6.32;;
2874;SDS011;1445;52.600;13.328;2023-04-24T03:56:36;8.65;;;6.60;;
2874;SDS011;1445;52.600;13.328;2023-04-24T03:59:01;8.02;;;6.45;;
2874;SDS011;1445;52.600;13.328;2023-04-24T04:01:27;7.50;;;6.70;;
2874;SDS011;1445;52.600;13.328;2023-04-24T04:03:53;7.50;;;6.40;;
2874;SDS011;1445;52.600;13.328;2023-04-24T04:06:18;6.55;;;5.90;;
2874;SDS011;1445;52.600;13.328;2023-04-24T04:08:44;10.00;;;6.20;;
2874;SDS011;1445;52.600;13.328;2023-04-24T04:11:09;6.88;;;6.18;;
2874;SDS011;1445;52.600;13.328;2023-04-24T04:13:35;6.57;;;5.88;;
2874;SDS011;1445;52.600;13.328;2023-04-24T04:16:01;6.43;;;5.72;;
2874;SDS011;1445;52.600;13.328;2023-04-24T04:18:26;7.82;;;6.07;;
2874;SDS011;1445;52.600;13.328;2023-04-24T04:20:51;7.18;;;5.80;;
2874;SDS011;1445;52.600;13.328;2023-04-24T04:23:17;6.97;;;5.90;;
2874;SDS011;1445;52.600;13.328;2023-04-24T04:25:42;6.82;;;5.90;;
2874;SDS011;1445;52.600;13.328;2023-04-24T04:28:08;6.82;;;5.35;;
2874;SDS011;1445;52.600;13.328;2023-04-24T04:30:33;8.52;;;5.85;;
2874;SDS011;1445;52.600;13.328;2023-04-24T04:32:59;6.22;;;5.30;;
2874;SDS011;1445;52.600;13.328;2023-04-24T04:35:27;6.43;;;5.70;;
2874;SDS011;1445;52.600;13.328;2023-04-24T04:37:52;7.10;;;5.82;;
2874;SDS011;1445;52.600;13.328;2023-04-24T04:40:18;7.38;;;6.22;;
2874;SDS011;1445;52.600;13.328;2023-04-24T04:42:43;6.93;;;5.45;;
2874;SDS011;1445;52.600;13.328;2023-04-24T04:45:11;6.60;;;5.88;;
2874;SDS011;1445;52.600;13.328;2023-04-24T04:47:36;6.70;;;5.70;;
2874;SDS011;1445;52.600;13.328;2023-04-24T04:50:02;8.75;;;5.68;;
2874;SDS011;1445;52.600;13.328;2023-04-24T04:52:29;7.22;;;5.97;;
2874;SDS011;1445;52.600;13.328;2023-04-24T04:54:54;6.45;;;5.70;;
2874;SDS011;1445;52.600;13.328;2023-04-24T04:57:20;7.63;;;6.30;;
2874;SDS011;1445;52.600;13.328;2023-04-24T04:59:45;6.50;;;5.63;;
2874;SDS011;1445;52.600;13.328;2023-04-24T05:02:11;7.00;;;6.10;;
2874;SDS011;1445;52.600;13.328;2023-04-24T05:04:36;7.53;;;5.78;;
2874;SDS011;1445;52.600;13.328;2023-04-24T05:07:02;7.70;;;6.00;;
2874;SDS011;1445;52.600;13.328;2023-04-24T05:09:28;7.75;;;6.18;;
2874;SDS011;1445;52.600;13.328;2023-04-24T05:11:54;7.47;;;5.53;;
2874;SDS011;1445;52.600;13.328;2023-04-24T05:14:20;8.95;;;5.75;;
2874;SDS011;1445;52.600;13.328;2023-04-24T05:16:46;7.05;;;5.22;;
2874;SDS011;1445;52.600;13.328;2023-04-24T05:19:11;7.00;;;4.75;;
2874;SDS011;1445;52.600;13.328;2023-04-24T05:21:39;6.47;;;4.75;;
2874;SDS011;1445;52.600;13.328;2023-04-24T05:24:05;6.68;;;5.60;;
2874;SDS011;1445;52.600;13.328;2023-04-24T05:26:30;5.97;;;4.95;;
2874;SDS011;1445;52.600;13.328;2023-04-24T05:28:56;5.90;;;4.80;;
2874;SDS011;1445;52.600;13.328;2023-04-24T05:31:21;6.65;;;4.82;;
2874;SDS011;1445;52.600;13.328;2023-04-24T05:33:46;5.05;;;4.38;;
2874;SDS011;1445;52.600;13.328;2023-04-24T05:36:12;7.53;;;4.68;;
2874;SDS011;1445;52.600;13.328;2023-04-24T05:38:38;5.03;;;4.35;;
2874;SDS011;1445;52.600;13.328;2023-04-24T05:41:03;5.07;;;4.57;;
2874;SDS011;1445;52.600;13.328;2023-04-24T05:43:29;6.57;;;4.38;;
2874;SDS011;1445;52.600;13.328;2023-04-24T05:45:54;4.90;;;4.30;;
2874;SDS011;1445;52.600;13.328;2023-04-24T05:48:20;7.97;;;4.13;;
2874;SDS011;1445;52.600;13.328;2023-04-24T05:50:47;4.72;;;4.22;;
2874;SDS011;1445;52.600;13.328;2023-04-24T05:53:13;5.10;;;3.78;;
2874;SDS011;1445;52.600;13.328;2023-04-24T05:55:38;4.97;;;4.00;;
2874;SDS011;1445;52.600;13.328;2023-04-24T05:58:04;4.78;;;4.05;;
2874;SDS011;1445;52.600;13.328;2023-04-24T06:00:29;4.32;;;3.90;;
2874;SDS011;1445;52.600;13.328;2023-04-24T06:02:55;6.20;;;3.83;;
2874;SDS011;1445;52.600;13.328;2023-04-24T06:05:20;4.88;;;3.72;;
2874;SDS011;1445;52.600;13.328;2023-04-24T06:07:46;5.25;;;3.70;;
2874;SDS011;1445;52.600;13.328;2023-04-24T06:10:11;3.40;;;3.10;;
2874;SDS011;1445;52.600;13.328;2023-04-24T06:12:36;4.18;;;3.35;;
2874;SDS011;1445;52.600;13.328;2023-04-24T06:15:02;4.65;;;3.67;;
2874;SDS011;1445;52.600;13.328;2023-04-24T06:17:29;4.35;;;3.35;;
2874;SDS011;1445;52.600;13.328;2023-04-24T06:19:54;3.72;;;3.30;;
2874;SDS011;1445;52.600;13.328;2023-04-24T06:22:19;3.80;;;2.60;;
2874;SDS011;1445;52.600;13.328;2023-04-24T06:24:45;5.13;;;2.75;;
2874;SDS011;1445;52.600;13.328;2023-04-24T06:27:10;3.88;;;2.70;;
2874;SDS011;1445;52.600;13.328;2023-04-24T06:29:36;4.03;;;2.50;;
2874;SDS011;1445;52.600;13.328;2023-04-24T06:32:01;3.70;;;2.10;;
2874;SDS011;1445;52.600;13.328;2023-04-24T06:34:27;5.38;;;2.53;;
2874;SDS011;1445;52.600;13.328;2023-04-24T06:36:53;3.00;;;2.03;;
2874;SDS011;1445;52.600;13.328;2023-04-24T06:39:19;3.08;;;2.33;;
2874;SDS011;1445;52.600;13.328;2023-04-24T06:41:45;3.22;;;2.13;;
2874;SDS011;1445;52.600;13.328;2023-04-24T06:44:11;2.97;;;2.35;;
2874;SDS011;1445;52.600;13.328;2023-04-24T06:46:36;2.70;;;1.80;;
2874;SDS011;1445;52.600;13.328;2023-04-24T06:49:01;2.55;;;1.80;;
2874;SDS011;1445;52.600;13.328;2023-04-24T06:51:27;3.15;;;1.77;;
2874;SDS011;1445;52.600;13.328;2023-04-24T06:53:53;1.90;;;1.50;;
2874;SDS011;1445;52.600;13.328;2023-04-24T06:56:19;2.30;;;1.70;;
2874;SDS011;1445;52.600;13.328;2023-04-24T06:58:45;1.95;;;1.50;;
2874;SDS011;1445;52.600;13.328;2023-04-24T07:01:11;4.13;;;1.50;;
2874;SDS011;1445;52.600;13.328;2023-04-24T07:03:37;1.48;;;1.25;;
2874;SDS011;1445;52.600;13.328;2023-04-24T07:06:02;2.55;;;1.30;;
2874;SDS011;1445;52.600;13.328;2023-04-24T07:08:28;1.73;;;1.20;;
2874;SDS011;1445;52.600;13.328;2023-04-24T07:10:55;1.75;;;1.23;;
2874;SDS011;1445;52.600;13.328;2023-04-24T07:13:21;2.40;;;1.50;;
2874;SDS011;1445;52.600;13.328;2023-04-24T07:15:47;1.60;;;1.05;;
2874;SDS011;1445;52.600;13.328;2023-04-24T07:18:15;1.48;;;1.10;;
2874;SDS011;1445;52.600;13.328;2023-04-24T07:20:41;1.60;;;1.05;;
2874;SDS011;1445;52.600;13.328;2023-04-24T07:23:06;2.78;;;1.30;;
2874;SDS011;1445;52.600;13.328;2023-04-24T07:25:32;1.58;;;0.90;;
2874;SDS011;1445;52.600;13.328;2023-04-24T07:27:58;2.10;;;1.30;;
2874;SDS011;1445;52.600;13.328;2023-04-24T07:30:23;1.90;;;1.00;;
2874;SDS011;1445;52.600;13.328;2023-04-24T07:32:49;2.00;;;1.17;;
2874;SDS011;1445;52.600;13.328;2023-04-24T07:35:14;1.02;;;0.80;;
2874;SDS011;1445;52.600;13.328;2023-04-24T07:37:40;1.85;;;1.00;;
2874;SDS011;1445;52.600;13.328;2023-04-24T07:40:10;2.22;;;0.98;;
2874;SDS011;1445;52.600;13.328;2023-04-24T07:42:39;1.33;;;0.80;;
2874;SDS011;1445;52.600;13.328;2023-04-24T07:45:05;1.52;;;0.80;;
2874;SDS011;1445;52.600;13.328;2023-04-24T07:47:31;1.45;;;0.95;;
2874;SDS011;1445;52.600;13.328;2023-04-24T07:49:57;1.58;;;1.13;;
2874;SDS011;1445;52.600;13.328;2023-04-24T07:52:23;1.38;;;0.82;;
2874;SDS011;1445;52.600;13.328;2023-04-24T07:54:49;1.38;;;0.90;;
2874;SDS011;1445;52.600;13.328;2023-04-24T07:57:15;1.25;;;0.93;;
2874;SDS011;1445;52.600;13.328;2023-04-24T07:59:41;3.63;;;1.00;;
2874;SDS011;1445;52.600;13.328;2023-04-24T08:02:06;1.10;;;0.80;;
2874;SDS011;1445;52.600;13.328;2023-04-24T08:04:32;1.30;;;1.00;;
2874;SDS011;1445;52.600;13.328;2023-04-24T08:06:58;1.75;;;0.80;;
2874;SDS011;1445;52.600;13.328;2023-04-24T08:09:23;1.13;;;0.80;;
2874;SDS011;1445;52.600;13.328;2023-04-24T08:11:49;1.02;;;0.75;;
2874;SDS011;1445;52.600;13.328;2023-04-24T08:14:14;1.42;;;0.85;;
2874;SDS011;1445;52.600;13.328;2023-04-24T08:16:40;1.52;;;0.88;;
2874;SDS011;1445;52.600;13.328;2023-04-24T08:19:06;2.42;;;0.93;;
2874;SDS011;1445;52.600;13.328;2023-04-24T08:21:31;2.08;;;0.90;;
2874;SDS011;1445;52.600;13.328;2023-04-24T08:23:57;1.52;;;0.70;;
2874;SDS011;1445;52.600;13.328;2023-04-24T08:26:22;6.60;;;1.38;;
2874;SDS011;1445;52.600;13.328;2023-04-24T08:28:48;1.50;;;0.80;;
2874;SDS011;1445;52.600;13.328;2023-04-24T08:31:14;1.80;;;0.70;;
2874;SDS011;1445;52.600;13.328;2023-04-24T08:33:39;1.08;;;0.70;;
2874;SDS011;1445;52.600;13.328;2023-04-24T08:36:06;1.23;;;0.80;;
2874;SDS011;1445;52.600;13.328;2023-04-24T08:38:33;2.15;;;1.15;;
2874;SDS011;1445;52.600;13.328;2023-04-24T08:40:59;0.95;;;0.70;;
2874;SDS011;1445;52.600;13.328;2023-04-24T08:43:26;2.40;;;1.00;;
2874;SDS011;1445;52.600;13.328;2023-04-24T08:45:52;2.00;;;1.08;;
2874;SDS011;1445;52.600;13.328;2023-04-24T08:48:20;2.35;;;1.13;;
2874;SDS011;1445;52.600;13.328;2023-04-24T08:50:47;1.42;;;0.60;;
2874;SDS011;1445;52.600;13.328;2023-04-24T08:53:15;0.90;;;0.70;;
2874;SDS011;1445;52.600;13.328;2023-04-24T08:55:41;0.80;;;0.70;;
2874;SDS011;1445;52.600;13.328;2023-04-24T08:58:09;0.70;;;0.63;;
2874;SDS011;1445;52.600;13.328;2023-04-24T09:00:35;1.25;;;0.80;;
2874;SDS011;1445;52.600;13.328;2023-04-24T09:03:01;1.42;;;0.60;;
2874;SDS011;1445;52.600;13.328;2023-04-24T09:05:28;0.85;;;0.57;;
2874;SDS011;1445;52.600;13.328;2023-04-24T09:07:55;1.15;;;0.68;;
2874;SDS011;1445;52.600;13.328;2023-04-24T09:10:24;0.60;;;0.50;;
2874;SDS011;1445;52.600;13.328;2023-04-24T09:12:50;0.80;;;0.60;;
2874;SDS011;1445;52.600;13.328;2023-04-24T09:15:17;0.82;;;0.50;;
2874;SDS011;1445;52.600;13.328;2023-04-24T09:17:43;1.90;;;1.00;;
2874;SDS011;1445;52.600;13.328;2023-04-24T09:20:09;1.48;;;0.60;;
2874;SDS011;1445;52.600;13.328;2023-04-24T09:22:35;1.13;;;0.70;;
2874;SDS011;1445;52.600;13.328;2023-04-24T09:25:02;2.15;;;0.60;;
2874;SDS011;1445;52.600;13.328;2023-04-24T09:27:41;1.23;;;0.90;;
2874;SDS011;1445;52.600;13.328;2023-04-24T09:30:08;1.98;;;0.85;;
2874;SDS011;1445;52.600;13.328;2023-04-24T09:32:34;0.85;;;0.70;;
2874;SDS011;1445;52.600;13.328;2023-04-24T09:35:06;1.83;;;0.90;;
2874;SDS011;1445;52.600;13.328;2023-04-24T09:37:40;3.17;;;0.90;;
2874;SDS011;1445;52.600;13.328;2023-04-24T09:40:14;0.55;;;0.50;;
2874;SDS011;1445;52.600;13.328;2023-04-24T09:42:44;1.25;;;0.70;;
2874;SDS011;1445;52.600;13.328;2023-04-24T09:45:11;2.17;;;0.93;;
2874;SDS011;1445;52.600;13.328;2023-04-24T09:47:37;1.10;;;0.70;;
2874;SDS011;1445;52.600;13.328;2023-04-24T09:50:10;1.98;;;1.17;;
2874;SDS011;1445;52.600;13.328;2023-04-24T09:52:39;1.42;;;0.80;;
2874;SDS011;1445;52.600;13.328;2023-04-24T09:55:16;2.08;;;1.00;;
2874;SDS011;1445;52.600;13.328;2023-04-24T09:57:53;1.58;;;0.90;;
2874;SDS011;1445;52.600;13.328;2023-04-24T10:00:28;3.47;;;1.10;;
2874;SDS011;1445;52.600;13.328;2023-04-24T10:02:56;3.90;;;1.38;;
2874;SDS011;1445;52.600;13.328;2023-04-24T10:05:26;8.45;;;2.10;;
2874;SDS011;1445;52.600;13.328;2023-04-24T10:07:59;1.02;;;0.65;;
2874;SDS011;1445;52.600;13.328;2023-04-24T10:10:31;1.25;;;0.80;;
2874;SDS011;1445;52.600;13.328;2023-04-24T10:12:58;1.65;;;1.00;;
2874;SDS011;1445;52.600;13.328;2023-04-24T10:15:24;1.60;;;0.80;;
2874;SDS011;1445;52.600;13.328;2023-04-24T10:17:51;1.80;;;1.13;;
2874;SDS011;1445;52.600;13.328;2023-04-24T10:20:21;1.33;;;0.90;;
2874;SDS011;1445;52.600;13.328;2023-04-24T10:22:49;3.28;;;0.70;;
2874;SDS011;1445;52.600;13.328;2023-04-24T10:25:19;1.77;;;1.15;;
2874;SDS011;1445;52.600;13.328;2023-04-24T10:27:46;1.40;;;0.90;;
2874;SDS011;1445;52.600;13.328;2023-04-24T10:30:13;1.58;;;0.70;;
2874;SDS011;1445;52.600;13.328;2023-04-24T10:32:39;1.38;;;1.00;;
2874;SDS011;1445;52.600;13.328;2023-04-24T10:35:05;1.08;;;0.60;;
2874;SDS011;1445;52.600;13.328;2023-04-24T10:37:40;1.73;;;0.80;;
2874;SDS011;1445;52.600;13.328;2023-04-24T10:40:09;1.17;;;0.93;;
2874;SDS011;1445;52.600;13.328;2023-04-24T10:42:35;3.70;;;1.20;;
2874;SDS011;1445;52.600;13.328;2023-04-24T10:45:06;1.67;;;1.00;;
2874;SDS011;1445;52.600;13.328;2023-04-24T10:47:40;1.63;;;0.93;;
2874;SDS011;1445;52.600;13.328;2023-04-24T10:50:10;1.67;;;0.90;;
2874;SDS011;1445;52.600;13.328;2023-04-24T10:52:48;1.25;;;0.80;;
2874;SDS011;1445;52.600;13.328;2023-04-24T10:55:16;1.98;;;1.08;;
2874;SDS011;1445;52.600;13.328;2023-04-24T10:58:02;1.73;;;1.00;;
2874;SDS011;1445;52.600;13.328;2023-04-24T11:00:29;2.88;;;1.23;;
2874;SDS011;1445;52.600;13.328;2023-04-24T11:02:54;1.88;;;0.80;;
2874;SDS011;1445;52.600;13.328;2023-04-24T11:05:21;1.10;;;0.80;;
2874;SDS011;1445;52.600;13.328;2023-04-24T11:10:44;2.00;;;1.00;;
2874;SDS011;1445;52.600;13.328;2023-04-24T11:13:22;1.17;;;0.80;;
2874;SDS011;1445;52.600;13.328;2023-04-24T11:18:50;1.77;;;1.30;;
2874;SDS011;1445;52.600;13.328;2023-04-24T11:21:26;1.40;;;0.80;;
2874;SDS011;1445;52.600;13.328;2023-04-24T11:23:56;1.20;;;0.90;;
2874;SDS011;1445;52.600;13.328;2023-04-24T11:26:22;1.58;;;1.08;;
2874;SDS011;1445;52.600;13.328;2023-04-24T11:29:05;1.20;;;0.80;;
2874;SDS011;1445;52.600;13.328;2023-04-24T11:34:11;1.48;;;0.88;;
2874;SDS011;1445;52.600;13.328;2023-04-24T11:36:39;0.95;;;0.77;;
2874;SDS011;1445;52.600;13.328;2023-04-24T11:39:07;3.53;;;0.90;;
2874;SDS011;1445;52.600;13.328;2023-04-24T11:41:33;2.22;;;0.88;;
2874;SDS011;1445;52.600;13.328;2023-04-24T11:43:58;2.00;;;0.90;;
2874;SDS011;1445;52.600;13.328;2023-04-24T11:46:28;2.03;;;1.10;;
2874;SDS011;1445;52.600;13.328;2023-04-24T11:48:55;2.22;;;0.90;;
2874;SDS011;1445;52.600;13.328;2023-04-24T11:51:22;2.30;;;0.90;;
2874;SDS011;1445;52.600;13.328;2023-04-24T11:53:48;1.80;;;0.85;;
2874;SDS011;1445;52.600;13.328;2023-04-24T11:56:17;2.35;;;0.90;;
2874;SDS011;1445;52.600;13.328;2023-04-24T11:58:44;2.53;;;0.95;;
2874;SDS011;1445;52.600;13.328;2023-04-24T12:01:09;3.38;;;1.00;;
2874;SDS011;1445;52.600;13.328;2023-04-24T12:03:35;1.38;;;0.63;;
2874;SDS011;1445;52.600;13.328;2023-04-24T12:06:10;2.05;;;0.70;;
2874;SDS011;1445;52.600;13.328;2023-04-24T12:08:36;2.08;;;0.98;;
2874;SDS011;1445;52.600;13.328;2023-04-24T12:11:03;2.15;;;0.98;;
2874;SDS011;1445;52.600;13.328;2023-04-24T12:13:32;2.67;;;0.85;;
2874;SDS011;1445;52.600;13.328;2023-04-24T12:15:58;2.15;;;1.23;;
2874;SDS011;1445;52.600;13.328;2023-04-24T12:18:23;1.40;;;0.90;;
2874;SDS011;1445;52.600;13.328;2023-04-24T12:20:49;1.05;;;0.90;;
2874;SDS011;1445;52.600;13.328;2023-04-24T12:23:15;3.58;;;1.23;;
2874;SDS011;1445;52.600;13.328;2023-04-24T12:25:40;2.70;;;1.20;;
2874;SDS011;1445;52.600;13.328;2023-04-24T12:28:11;1.90;;;1.00;;
2874;SDS011;1445;52.600;13.328;2023-04-24T12:30:41;1.55;;;0.98;;
2874;SDS011;1445;52.600;13.328;2023-04-24T12:33:17;2.05;;;1.17;;
2874;SDS011;1445;52.600;13.328;2023-04-24T12:35:44;2.67;;;1.02;;
2874;SDS011;1445;52.600;13.328;2023-04-24T12:38:11;1.75;;;1.23;;
2874;SDS011;1445;52.600;13.328;2023-04-24T12:40:38;2.28;;;1.10;;
2874;SDS011;1445;52.600;13.328;2023-04-24T12:43:14;2.65;;;0.85;;
2874;SDS011;1445;52.600;13.328;2023-04-24T12:45:40;2.25;;;0.70;;
2874;SDS011;1445;52.600;13.328;2023-04-24T12:48:06;1.52;;;0.55;;
2874;SDS011;1445;52.600;13.328;2023-04-24T12:50:31;1.48;;;0.60;;
2874;SDS011;1445;52.600;13.328;2023-04-24T12:52:56;1.20;;;0.70;;
2874;SDS011;1445;52.600;13.328;2023-04-24T12:55:22;2.30;;;0.80;;
2874;SDS011;1445;52.600;13.328;2023-04-24T12:57:47;0.80;;;0.70;;
2874;SDS011;1445;52.600;13.328;2023-04-24T13:00:16;1.17;;;0.88;;
2874;SDS011;1445;52.600;13.328;2023-04-24T13:02:42;4.30;;;0.90;;
2874;SDS011;1445;52.600;13.328;2023-04-24T13:05:08;1.45;;;0.80;;
2874;SDS011;1445;52.600;13.328;2023-04-24T13:07:33;3.83;;;1.23;;
2874;SDS011;1445;52.600;13.328;2023-04-24T13:09:59;2.95;;;1.05;;
2874;SDS011;1445;52.600;13.328;2023-04-24T13:12:24;1.38;;;0.85;;
2874;SDS011;1445;52.600;13.328;2023-04-24T13:14:51;2.08;;;0.88;;
2874;SDS011;1445;52.600;13.328;2023-04-24T13:17:16;1.42;;;1.05;;
2874;SDS011;1445;52.600;13.328;2023-04-24T13:19:42;1.05;;;0.90;;
2874;SDS011;1445;52.600;13.328;2023-04-24T13:22:09;2.60;;;0.90;;
2874;SDS011;1445;52.600;13.328;2023-04-24T13:24:36;3.58;;;0.95;;
2874;SDS011;1445;52.600;13.328;2023-04-24T13:27:03;1.67;;;1.10;;
2874;SDS011;1445;52.600;13.328;2023-04-24T13:29:28;2.90;;;1.00;;
2874;SDS011;1445;52.600;13.328;2023-04-24T13:31:54;0.95;;;0.85;;
2874;SDS011;1445;52.600;13.328;2023-04-24T13:34:20;3.70;;;0.80;;
2874;SDS011;1445;52.600;13.328;2023-04-24T13:36:50;1.92;;;0.90;;
2874;SDS011;1445;52.600;13.328;2023-04-24T13:39:16;1.88;;;0.90;;
2874;SDS011;1445;52.600;13.328;2023-04-24T13:41:42;1.15;;;0.90;;
2874;SDS011;1445;52.600;13.328;2023-04-24T13:44:08;1.10;;;0.90;;
2874;SDS011;1445;52.600;13.328;2023-04-24T13:46:33;1.67;;;0.90;;
2874;SDS011;1445;52.600;13.328;2023-04-24T13:49:02;1.70;;;1.10;;
2874;SDS011;1445;52.600;13.328;2023-04-24T13:51:51;1.70;;;1.17;;
2874;SDS011;1445;52.600;13.328;2023-04-24T13:54:17;1.63;;;1.00;;
2874;SDS011;1445;52.600;13.328;2023-04-24T13:56:42;1.73;;;0.98;;
2874;SDS011;1445;52.600;13.328;2023-04-24T13:59:08;1.50;;;0.90;;
2874;SDS011;1445;52.600;13.328;2023-04-24T14:01:33;1.90;;;1.00;;
2874;SDS011;1445;52.600;13.328;2023-04-24T14:03:59;1.00;;;0.70;;
2874;SDS011;1445;52.600;13.328;2023-04-24T14:06:25;1.20;;;0.80;;
2874;SDS011;1445;52.600;13.328;2023-04-24T14:08:50;2.40;;;1.00;;
2874;SDS011;1445;52.600;13.328;2023-04-24T14:11:19;1.63;;;1.00;;
2874;SDS011;1445;52.600;13.328;2023-04-24T14:13:45;2.03;;;0.90;;
2874;SDS011;1445;52.600;13.328;2023-04-24T14:16:11;2.05;;;0.80;;
2874;SDS011;1445;52.600;13.328;2023-04-24T14:18:36;2.45;;;1.00;;
2874;SDS011;1445;52.600;13.328;2023-04-24T14:21:05;1.40;;;0.90;;
2874;SDS011;1445;52.600;13.328;2023-04-24T14:23:30;1.08;;;0.75;;
2874;SDS011;1445;52.600;13.328;2023-04-24T14:25:59;1.67;;;0.98;;
2874;SDS011;1445;52.600;13.328;2023-04-24T14:28:25;2.53;;;1.20;;
2874;SDS011;1445;52.600;13.328;2023-04-24T14:30:51;1.52;;;1.02;;
2874;SDS011;1445;52.600;13.328;2023-04-24T14:33:17;1.67;;;1.10;;
2874;SDS011;1445;52.600;13.328;2023-04-24T14:35:42;1.00;;;0.90;;
2874;SDS011;1445;52.600;13.328;2023-04-24T14:38:08;2.33;;;1.35;;
2874;SDS011;1445;52.600;13.328;2023-04-24T14:40:34;2.95;;;0.90;;
2874;SDS011;1445;52.600;13.328;2023-04-24T14:43:02;1.67;;;0.80;;
2874;SDS011;1445;52.600;13.328;2023-04-24T14:45:28;2.13;;;0.95;;
2874;SDS011;1445;52.600;13.328;2023-04-24T14:47:54;1.42;;;0.90;;
2874;SDS011;1445;52.600;13.328;2023-04-24T14:50:21;1.35;;;1.00;;
2874;SDS011;1445;52.600;13.328;2023-04-24T14:52:46;2.58;;;0.98;;
2874;SDS011;1445;52.600;13.328;2023-04-24T14:55:12;0.95;;;0.75;;
2874;SDS011;1445;52.600;13.328;2023-04-24T14:57:37;2.60;;;1.30;;
2874;SDS011;1445;52.600;13.328;2023-04-24T15:00:04;1.23;;;1.00;;
2874;SDS011;1445;52.600;13.328;2023-04-24T15:02:33;1.88;;;0.90;;
2874;SDS011;1445;52.600;13.328;2023-04-24T15:04:58;3.13;;;1.15;;